Time;durP1;ratioP1;P1;durP2;ratioP2;P2;SDS_P1;SDS_P2;PMS_P1;PMS_P2;Temp;Humidity;BMP_temperature;BMP_pressure;BME280_temperature;BME280_humidity;BME280_pressure;Samples;Min_cycle;Max_cycle;Signal;HPM_P1;HPM_P2
2020/12/01 00:00:54;;;;;;;27.67;3.50;;;;;;;10.11;74.10;101424.56;5043552;28;20048;-84
2020/12/01 00:03:21;;;;;;;30.30;5.22;;;;;;;10.18;73.48;101420.97;5052142;28;20025;-84
2020/12/01 00:05:47;;;;;;;28.50;3.95;;;;;;;10.17;73.47;101424.50;5051084;28;20044;-84
2020/12/01 00:08:14;;;;;;;36.70;4.40;;;;;;;10.19;73.42;101419.19;5052548;28;20017;-84
2020/12/01 00:10:40;;;;;;;23.80;4.78;;;;;;;10.02;74.02;101422.00;5052482;28;20396;-84
2020/12/01 00:13:07;;;;;;;24.80;4.15;;;;;;;10.00;74.01;101424.63;5051379;28;20021;-84
2020/12/01 00:15:33;;;;;;;16.83;3.67;;;;;;;9.91;73.74;101424.72;5052240;28;20829;-84
2020/12/01 00:18:00;;;;;;;26.40;4.18;;;;;;;9.78;74.04;101421.31;5052472;28;20040;-83
2020/12/01 00:20:26;;;;;;;16.35;3.35;;;;;;;9.93;72.99;101428.25;5052159;28;20032;-83
2020/12/01 00:22:54;;;;;;;27.20;4.00;;;;;;;9.90;72.19;101425.63;5052376;28;20438;-83
2020/12/01 00:25:22;;;;;;;19.25;3.58;;;;;;;9.97;72.09;101426.44;5051726;28;20028;-83
2020/12/01 00:27:49;;;;;;;25.55;3.55;;;;;;;9.89;71.95;101421.22;5051727;28;20108;-83
2020/12/01 00:30:19;;;;;;;29.58;3.85;;;;;;;9.89;71.84;101437.09;5052347;28;20017;-83
2020/12/01 00:32:46;;;;;;;26.65;3.83;;;;;;;9.86;71.88;101423.88;5051883;28;20117;-83
2020/12/01 00:35:15;;;;;;;25.15;3.30;;;;;;;9.67;72.35;101429.31;5049736;28;20128;-83
2020/12/01 00:37:41;;;;;;;22.70;3.42;;;;;;;9.64;72.20;101431.97;5051206;28;20048;-83
2020/12/01 00:40:09;;;;;;;25.45;4.32;;;;;;;9.73;71.67;101436.31;5051427;28;20029;-83
2020/12/01 00:42:36;;;;;;;26.88;4.05;;;;;;;9.63;71.70;101432.88;5051813;28;20070;-83
2020/12/01 00:45:04;;;;;;;21.38;3.90;;;;;;;9.59;71.40;101433.78;5051995;28;20052;-84
2020/12/01 00:47:30;;;;;;;20.38;3.83;;;;;;;9.65;71.74;101428.44;5052150;28;20472;-83
2020/12/01 00:49:57;;;;;;;32.75;3.70;;;;;;;9.61;71.32;101432.00;5051850;28;20040;-84
2020/12/01 00:52:23;;;;;;;34.35;4.45;;;;;;;9.63;71.34;101435.53;5051517;28;20040;-83
2020/12/01 00:54:50;;;;;;;26.50;3.72;;;;;;;9.57;71.21;101435.56;5051448;28;20029;-83
2020/12/01 00:57:16;;;;;;;30.92;3.05;;;;;;;9.54;71.27;101433.81;5051540;28;20025;-84
2020/12/01 00:59:43;;;;;;;29.25;3.22;;;;;;;9.57;71.70;101435.56;5048855;28;20056;-84
2020/12/01 01:02:10;;;;;;;21.35;3.13;;;;;;;9.56;71.70;101433.81;5051741;28;20603;-83
2020/12/01 01:04:36;;;;;;;29.67;4.28;;;;;;;9.68;71.22;101422.25;5048501;28;20041;-84
2020/12/01 01:07:03;;;;;;;22.55;3.40;;;;;;;9.69;70.78;101424.91;5046443;28;20051;-83
2020/12/01 01:09:29;;;;;;;34.42;4.32;;;;;;;9.82;70.33;101427.44;5051789;28;20025;-83
2020/12/01 01:11:56;;;;;;;23.15;4.47;;;;;;;9.66;70.40;101430.19;5050340;28;20033;-83
2020/12/01 01:14:22;;;;;;;26.08;3.08;;;;;;;9.63;70.50;101430.25;5051374;28;20111;-83
2020/12/01 01:16:49;;;;;;;32.50;3.90;;;;;;;9.57;70.92;101430.28;5049117;28;20021;-83
2020/12/01 01:19:16;;;;;;;17.77;3.30;;;;;;;9.50;71.50;101429.41;5051428;28;20119;-84
2020/12/01 01:21:45;;;;;;;21.83;2.83;;;;;;;9.63;71.06;101424.94;5051796;28;20041;-84
2020/12/01 01:24:13;;;;;;;15.07;2.65;;;;;;;9.73;70.72;101431.03;5050181;28;20036;-84
2020/12/01 01:26:40;;;;;;;23.38;3.42;;;;;;;9.75;70.83;101426.59;5051378;28;20033;-86
2020/12/01 01:29:07;;;;;;;27.02;3.67;;;;;;;9.79;70.48;101427.47;5049730;28;20040;-84
2020/12/01 01:31:33;;;;;;;22.90;3.13;;;;;;;9.75;70.61;101431.03;5051397;28;20022;-84
2020/12/01 01:34:00;;;;;;;19.40;3.15;;;;;;;9.75;71.05;101433.69;5051639;28;20040;-84
2020/12/01 01:36:33;;;;;;;29.55;3.00;;;;;;;9.87;70.38;101433.59;5051170;28;20164;-85
2020/12/01 01:38:59;;;;;;;27.85;3.53;;;;;;;9.77;70.67;101437.19;5054658;28;20052;-85
2020/12/01 01:41:31;;;;;;;17.17;3.10;;;;;;;9.61;70.97;101436.41;5054234;28;20035;-86
2020/12/01 01:43:58;;;;;;;17.17;2.78;;;;;;;9.71;70.73;101443.41;5055557;28;20033;-84
2020/12/01 01:49:15;;;;;;;24.38;3.53;;;;;;;9.74;70.70;101442.50;5067861;28;20413;-84
2020/12/01 01:51:51;;;;;;;20.20;2.35;;;;;;;9.77;70.79;101445.13;5062121;28;20025;-84
2020/12/01 01:54:19;;;;;;;25.02;2.88;;;;;;;9.71;71.09;101446.91;5049251;28;20033;-84
2020/12/01 01:56:50;;;;;;;16.90;2.35;;;;;;;9.71;71.70;101443.41;5049100;28;20021;-83
2020/12/01 01:59:17;;;;;;;23.00;2.88;;;;;;;9.63;71.93;101440.81;5042797;28;20518;-84
2020/12/01 02:01:44;;;;;;;21.10;3.22;;;;;;;9.67;71.97;101442.53;5048482;28;20029;-84
2020/12/01 02:04:13;;;;;;;22.40;2.88;;;;;;;9.80;71.68;101438.03;5045910;28;20029;-84
2020/12/01 02:09:46;;;;;;;20.40;2.97;;;;;;;9.55;73.33;101432.03;5081705;27;20860;-84
2020/12/01 02:12:15;;;;;;;15.00;2.13;;;;;;;9.75;71.81;101431.03;5056090;28;20065;-85
2020/12/01 02:17:34;;;;;;;16.85;2.30;;;;;;;9.66;72.41;101435.50;5097818;27;20374;-82
2020/12/01 02:20:10;;;;;;;25.25;3.03;;;;;;;9.65;72.82;101436.38;5090671;28;20036;-82
2020/12/01 02:22:37;;;;;;;16.67;1.80;;;;;;;9.60;72.60;101438.19;5093174;28;20154;-83
2020/12/01 02:25:04;;;;;;;14.88;1.80;;;;;;;9.67;72.42;101431.97;5091576;28;20024;-83
2020/12/01 02:27:30;;;;;;;17.08;2.00;;;;;;;9.61;72.46;101432.00;5100333;28;20031;-84
2020/12/01 02:29:59;;;;;;;13.63;1.70;;;;;;;9.75;72.02;101428.38;5100942;28;20031;-83
2020/12/01 02:32:27;;;;;;;15.02;2.53;;;;;;;9.78;72.33;101433.66;5089215;28;20056;-83
2020/12/01 02:34:59;;;;;;;14.55;2.13;;;;;;;9.66;73.29;101421.41;5091337;28;20063;-83
2020/12/01 02:37:27;;;;;;;19.52;2.88;;;;;;;9.69;73.11;101426.66;5091100;28;20378;-83
2020/12/01 02:39:54;;;;;;;19.08;3.28;;;;;;;9.70;73.29;101429.28;5090580;28;20025;-84
2020/12/01 02:42:24;;;;;;;12.00;1.90;;;;;;;9.80;73.25;101431.88;5095881;28;20059;-83
2020/12/01 02:44:52;;;;;;;16.42;2.80;;;;;;;9.90;72.96;101436.19;5107150;28;20032;-83
2020/12/01 02:47:19;;;;;;;19.70;2.70;;;;;;;9.85;73.28;101430.06;5098987;28;20505;-83
2020/12/01 02:49:46;;;;;;;16.38;2.88;;;;;;;9.93;73.20;101417.66;5117215;28;20027;-83
2020/12/01 02:52:14;;;;;;;17.88;2.40;;;;;;;9.96;72.98;101432.66;5109971;28;20028;-83
2020/12/01 02:54:41;;;;;;;12.88;2.58;;;;;;;10.03;72.65;101426.38;5110096;28;20024;-83
2020/12/01 02:57:08;;;;;;;16.20;2.60;;;;;;;9.93;72.98;101427.34;5109673;28;20424;-83
2020/12/01 02:59:35;;;;;;;14.90;2.80;;;;;;;9.99;73.07;101417.63;5109639;28;20084;-84
2020/12/01 03:02:01;;;;;;;12.95;3.25;;;;;;;10.02;72.65;101429.94;5109621;28;20035;-84
2020/12/01 03:04:28;;;;;;;18.25;3.00;;;;;;;10.03;72.93;101421.97;5109345;28;20095;-83
2020/12/01 03:06:54;;;;;;;25.40;2.83;;;;;;;10.09;72.69;101428.13;5109697;28;20505;-84
2020/12/01 03:09:21;;;;;;;22.25;2.30;;;;;;;10.03;73.17;101429.94;5109666;28;20031;-83
2020/12/01 03:11:49;;;;;;;22.85;3.13;;;;;;;9.94;73.24;101432.63;5110077;28;20019;-83
2020/12/01 03:14:16;;;;;;;9.77;2.08;;;;;;;10.00;72.79;101424.63;5109447;28;20382;-84
2020/12/01 03:16:43;;;;;;;7.35;1.27;;;;;;;10.04;73.22;101423.75;5109172;28;20122;-84
2020/12/01 03:19:09;;;;;;;11.32;1.45;;;;;;;10.08;72.96;101421.06;5109550;28;20038;-83
2020/12/01 03:21:35;;;;;;;25.20;3.20;;;;;;;9.93;73.52;101419.41;5109112;28;20496;-83
2020/12/01 03:24:02;;;;;;;14.85;1.60;;;;;;;10.04;73.41;101409.63;5102434;28;20104;-83
2020/12/01 03:26:29;;;;;;;15.32;2.17;;;;;;;10.03;73.12;101413.16;5109183;28;20059;-83
2020/12/01 03:28:55;;;;;;;15.05;2.03;;;;;;;10.02;73.38;101419.34;5094960;28;20020;-83
2020/12/01 03:31:22;;;;;;;8.35;1.98;;;;;;;10.00;73.55;101414.06;5095336;28;20024;-83
2020/12/01 03:33:49;;;;;;;7.57;1.60;;;;;;;10.01;73.63;101410.53;5095518;28;20028;-83
2020/12/01 03:36:17;;;;;;;17.17;3.42;;;;;;;9.98;74.20;101410.56;5095563;28;20061;-83
2020/12/01 03:38:43;;;;;;;10.98;1.83;;;;;;;10.04;73.93;101399.91;5095242;28;20529;-83
2020/12/01 03:41:11;;;;;;;14.68;2.03;;;;;;;10.04;74.18;101393.72;5095382;28;20024;-82
2020/12/01 03:43:37;;;;;;;18.42;4.18;;;;;;;9.99;74.54;101395.53;5095103;28;20024;-82
2020/12/01 03:46:05;;;;;;;14.93;1.98;;;;;;;10.02;74.66;101385.81;5091880;28;20047;-83
2020/12/01 03:48:32;;;;;;;9.05;1.27;;;;;;;10.11;74.25;101395.44;5095212;28;20554;-83
2020/12/01 03:50:58;;;;;;;11.98;2.20;;;;;;;10.13;74.58;101388.38;5095141;28;20035;-83
2020/12/01 03:53:24;;;;;;;15.27;2.70;;;;;;;10.07;74.71;101385.78;5102690;28;20428;-83
2020/12/01 03:55:51;;;;;;;22.92;3.00;;;;;;;10.07;75.11;101382.22;5097868;28;20024;-83
2020/12/01 03:58:18;;;;;;;10.63;2.35;;;;;;;10.13;74.92;101376.88;5095166;28;20068;-83
2020/12/01 04:00:45;;;;;;;9.23;1.48;;;;;;;10.17;75.16;101383.91;5085384;28;20476;-83
2020/12/01 04:03:12;;;;;;;13.13;2.08;;;;;;;9.94;76.87;101376.19;5095167;28;20061;-83
2020/12/01 04:05:38;;;;;;;21.63;2.80;;;;;;;10.12;76.00;101385.72;5095330;28;20035;-83
2020/12/01 04:08:09;;;;;;;19.33;3.15;;;;;;;10.28;75.76;101376.75;5094494;28;20039;-84
2020/12/01 04:10:35;;;;;;;33.17;4.00;;;;;;;10.28;75.72;101381.16;5094880;28;20394;-83
2020/12/01 04:13:02;;;;;;;30.33;4.07;;;;;;;10.20;75.72;101379.47;5094576;28;20028;-84
2020/12/01 04:15:29;;;;;;;31.80;4.90;;;;;;;10.32;75.68;101389.06;5094585;28;20092;-84
2020/12/01 04:17:55;;;;;;;28.65;4.93;;;;;;;10.20;76.37;101390.06;5094653;28;20111;-84
2020/12/01 04:20:22;;;;;;;26.33;4.22;;;;;;;10.34;75.57;101392.56;5094734;28;20054;-84
2020/12/01 04:22:49;;;;;;;31.10;4.57;;;;;;;10.36;75.67;101387.28;5094401;28;20063;-83
2020/12/01 04:25:19;;;;;;;29.00;4.00;;;;;;;10.36;75.80;101388.16;5107103;28;20020;-84
2020/12/01 04:27:46;;;;;;;25.65;3.80;;;;;;;10.18;76.28;101391.84;5094564;28;20107;-83
2020/12/01 04:30:13;;;;;;;32.20;4.45;;;;;;;10.45;75.49;101400.41;5094457;28;20024;-84
2020/12/01 04:32:40;;;;;;;31.45;5.15;;;;;;;10.40;75.70;101399.59;5091877;28;20475;-83
2020/12/01 04:35:06;;;;;;;28.85;3.67;;;;;;;10.32;75.84;101394.34;5076551;28;20028;-84
2020/12/01 04:37:33;;;;;;;30.98;4.80;;;;;;;10.43;75.60;101406.63;5094365;28;20035;-84
2020/12/01 04:39:59;;;;;;;50.28;6.75;;;;;;;10.55;75.09;101400.34;5093213;28;20024;-85
2020/12/01 04:42:28;;;;;;;24.92;3.85;;;;;;;10.39;75.55;101407.56;5094608;28;20028;-84
2020/12/01 04:45:03;;;;;;;28.80;5.25;;;;;;;10.55;75.24;101422.41;5094171;28;20126;-83
2020/12/01 04:47:35;;;;;;;27.50;4.60;;;;;;;10.42;75.54;101420.75;5094055;28;20025;-86
2020/12/01 04:50:09;;;;;;;40.67;5.38;;;;;;;10.36;75.79;101427.88;5094365;28;20110;-84
2020/12/01 04:52:53;;;;;;;36.17;5.45;;;;;;;10.57;75.16;101436.53;5094137;28;20031;-84
2020/12/01 04:55:48;;;;;;;20.60;3.58;;;;;;;10.48;75.29;101429.53;5093638;28;20479;-84
2020/12/01 04:58:54;;;;;;;26.25;3.70;;;;;;;10.38;75.47;101425.25;5081534;28;20059;-85
2020/12/01 05:02:00;;;;;;;30.42;4.38;;;;;;;10.35;75.73;101434.06;5092595;28;20028;-85
2020/12/01 05:04:32;;;;;;;19.63;3.40;;;;;;;10.38;75.56;101434.94;5093549;28;20387;-86
2020/12/01 05:09:56;;;;;;;28.25;3.72;;;;;;;10.43;75.52;101447.25;5060701;27;20427;-84
2020/12/01 05:12:41;;;;;;;25.77;3.25;;;;;;;10.56;75.29;101449.78;5056678;28;20025;-84
2020/12/01 05:15:19;;;;;;;21.92;3.60;;;;;;;10.43;75.69;101444.63;5036478;28;20057;-85
2020/12/01 05:18:00;;;;;;;28.65;5.20;;;;;;;10.52;75.25;101443.66;5049491;28;20048;-83
2020/12/01 05:20:26;;;;;;;20.38;3.70;;;;;;;10.36;76.04;101448.22;5049624;28;20062;-82
2020/12/01 05:22:57;;;;;;;30.20;4.40;;;;;;;10.43;75.70;101456.97;5049639;28;20112;-83
2020/12/01 05:25:27;;;;;;;17.00;3.97;;;;;;;10.49;75.07;101460.44;5049660;28;20021;-85
2020/12/01 05:28:17;;;;;;;30.38;5.47;;;;;;;10.40;75.74;101470.25;5049536;28;20468;-85
2020/12/01 05:30:44;;;;;;;19.02;3.70;;;;;;;10.33;75.88;101474.69;5047373;28;20156;-85
2020/12/01 05:36:03;;;;;;;17.35;3.45;;;;;;;10.17;76.46;101489.84;5078358;28;20440;-83
2020/12/01 05:38:32;;;;;;;16.40;3.33;;;;;;;10.23;76.34;101494.19;5056560;28;20025;-83
2020/12/01 05:41:01;;;;;;;21.00;2.83;;;;;;;10.20;76.67;101489.81;5053871;28;20488;-84
2020/12/01 05:43:34;;;;;;;14.85;3.63;;;;;;;10.17;76.88;101501.31;5057831;28;20100;-85
2020/12/01 05:46:23;;;;;;;20.33;2.90;;;;;;;10.46;75.77;101499.34;5054712;28;20029;-85
2020/12/01 05:54:22;;;;;;;23.52;3.25;;;;;;;10.25;76.33;101509.19;5083191;28;20472;-83
2020/12/01 05:56:51;;;;;;;23.92;3.47;;;;;;;10.26;76.21;101521.53;5070554;28;20064;-84
2020/12/01 05:59:21;;;;;;;17.65;2.70;;;;;;;10.10;76.40;101511.97;5069983;28;20040;-84
2020/12/01 06:01:51;;;;;;;28.20;3.33;;;;;;;10.23;76.05;101521.56;5058926;28;20043;-83
2020/12/01 06:04:20;;;;;;;21.83;4.13;;;;;;;10.23;76.34;101523.31;5049893;28;20029;-84
2020/12/01 06:07:12;;;;;;;22.15;3.92;;;;;;;10.45;75.54;101521.41;5050273;28;20502;-84
2020/12/01 06:10:14;;;;;;;23.95;3.92;;;;;;;10.29;75.67;101529.47;5049266;28;20033;-84
2020/12/01 06:13:03;;;;;;;33.85;3.90;;;;;;;10.40;75.19;101534.69;5049947;28;20377;-85
2020/12/01 06:15:30;;;;;;;31.63;4.60;;;;;;;10.26;75.83;101544.50;5047954;28;20116;-85
2020/12/01 06:21:05;;;;;;;27.23;3.92;;;;;;;10.43;75.39;101541.75;5089592;27;20715;-84
2020/12/01 06:29:31;;;;;;;24.05;5.32;;;;;;;10.49;75.02;101547.00;5046552;28;20446;-84
2020/12/01 06:35:23;;;;;;;25.67;4.57;;;;;;;10.36;75.16;101552.38;5084144;27;20413;-85
2020/12/01 06:38:15;;;;;;;28.55;4.43;;;;;;;10.42;74.81;101559.41;5059497;28;20040;-85
2020/12/01 06:40:57;;;;;;;37.78;5.43;;;;;;;10.41;74.81;101570.03;5053445;28;20037;-85
2020/12/01 06:52:14;;;;;;;24.67;3.92;;;;;;;9.99;75.07;101610.88;5094725;27;20366;-84
2020/12/01 06:54:49;;;;;;;18.75;3.03;;;;;;;10.10;75.26;101605.50;5049323;28;20492;-84
2020/12/01 07:00:10;;;;;;;26.25;2.80;;;;;;;9.90;74.85;101621.50;5061827;27;20479;-85
2020/12/01 07:02:39;;;;;;;16.40;2.88;;;;;;;9.93;74.65;101626.78;5058896;28;20031;-84
2020/12/01 07:05:11;;;;;;;20.55;2.92;;;;;;;9.89;75.36;101630.31;5049724;28;20030;-84
2020/12/01 07:07:41;;;;;;;;;;;;;;;10.07;74.64;101623.16;5050238;28;20025;-85
2020/12/01 07:10:29;;;;;;;29.85;4.43;;;;;;;10.07;74.73;101625.81;5046080;28;20368;-84
2020/12/01 07:13:08;;;;;;;25.40;3.25;;;;;;;10.09;74.50;101640.81;5049822;28;20033;-84
2020/12/01 07:15:40;;;;;;;28.10;5.07;;;;;;;10.03;74.58;101646.13;5049245;28;20079;-86
2020/12/01 07:18:27;;;;;;;35.45;4.53;;;;;;;10.16;74.44;101657.56;5045437;28;20025;-86
2020/12/01 07:24:06;;;;;;;41.97;5.15;;;;;;;10.17;74.13;101662.84;5072140;27;20449;-85
2020/12/01 07:32:46;;;;;;;32.80;4.55;;;;;;;10.16;74.71;101673.44;5065294;28;20840;-86
2020/12/01 07:38:06;;;;;;;36.88;4.65;;;;;;;10.04;74.74;101685.88;5082193;27;20794;-89
2020/12/01 07:40:42;;;;;;;30.35;5.13;;;;;;;10.15;74.36;101690.22;5065379;28;20166;-87
2020/12/01 07:43:13;;;;;;;32.67;5.55;;;;;;;10.02;74.52;101692.91;5062690;28;20056;-87
2020/12/01 07:45:39;;;;;;;33.28;5.78;;;;;;;10.22;73.87;101702.56;5055207;28;20037;-87
2020/12/01 07:48:14;;;;;;;30.05;4.05;;;;;;;10.12;74.18;101696.41;5057550;28;20057;-86
2020/12/01 07:50:42;;;;;;;27.30;5.20;;;;;;;10.01;74.88;101704.38;5052103;28;20025;-88
2020/12/01 07:53:14;;;;;;;38.00;4.60;;;;;;;10.13;74.37;101713.16;5059969;28;20116;-89
2020/12/01 07:58:22;;;;;;;27.90;4.03;;;;;;;10.12;73.99;101722.91;5063121;28;20420;-88
2020/12/01 08:00:52;;;;;;;31.58;4.65;;;;;;;10.05;74.49;101715.84;5064580;28;20107;-89
2020/12/01 08:03:24;;;;;;;49.47;6.13;;;;;;;10.17;74.27;101730.84;5049081;28;20043;-89
2020/12/01 08:05:52;;;;;;;23.95;4.03;;;;;;;10.15;74.02;101724.66;5046156;28;20040;-88
2020/12/01 08:08:21;;;;;;;30.90;6.07;;;;;;;10.24;74.05;101729.88;5048172;28;20037;-86
2020/12/01 08:10:50;;;;;;;39.47;10.18;;;;;;;10.19;74.10;101734.31;5049387;28;20071;-84
2020/12/01 08:13:19;;;;;;;45.33;9.68;;;;;;;10.28;73.83;101730.75;5049231;28;20029;-84
2020/12/01 08:15:47;;;;;;;29.23;5.57;;;;;;;10.13;74.15;101737.00;5049490;28;20075;-85
2020/12/01 08:18:16;;;;;;;44.05;6.65;;;;;;;9.98;74.49;101737.94;5042871;28;20052;-83
2020/12/01 08:20:43;;;;;;;39.35;5.32;;;;;;;10.10;73.98;101744.97;5046496;28;20033;-88
2020/12/01 08:23:19;;;;;;;30.42;4.60;;;;;;;9.90;74.78;101751.19;5048756;28;20030;-84
2020/12/01 08:25:54;;;;;;;27.33;4.68;;;;;;;10.09;73.53;101749.38;5048592;28;20025;-83
2020/12/01 08:28:27;;;;;;;44.70;5.07;;;;;;;10.25;73.35;101752.84;5048745;28;20423;-84
2020/12/01 08:39:50;;;;;;;30.17;5.05;;;;;;;10.35;72.33;101759.88;5088642;28;20391;-82
2020/12/01 08:42:45;;;;;;;30.27;4.97;;;;;;;10.40;72.08;101769.59;5060784;28;20041;-82
2020/12/01 08:48:01;;;;;;;26.73;3.95;;;;;;;10.31;71.75;101784.59;5064807;28;20423;-83
2020/12/01 08:53:15;;;;;;;20.73;3.83;;;;;;;10.13;71.31;101795.25;5057945;27;20430;-87
2020/12/01 09:01:16;;;;;;;22.83;3.50;;;;;;;10.28;70.03;101789.94;5124110;27;20725;-84
2020/12/01 09:03:59;;;;;;;29.40;4.65;;;;;;;10.44;70.21;101795.19;5109873;27;20068;-84
2020/12/01 09:06:33;;;;;;;22.60;3.83;;;;;;;10.26;70.73;101798.78;5109311;28;20020;-84
2020/12/01 09:09:07;;;;;;;24.45;3.60;;;;;;;10.44;69.83;101797.84;5103779;28;20028;-84
2020/12/01 09:12:17;;;;;;;26.35;3.38;;;;;;;10.40;69.39;101798.75;5107474;28;20421;-86
2020/12/01 09:14:41;;;;;;;32.00;4.10;;;;;;;10.38;69.93;101800.50;5107948;28;20036;-86
2020/12/01 09:17:23;;;;;;;32.10;4.18;;;;;;;10.44;70.10;101803.13;5099031;28;20028;-86
2020/12/01 09:22:38;;;;;;;22.65;3.67;;;;;;;10.52;69.50;101814.59;5093123;28;20047;-85
2020/12/01 09:25:15;;;;;;;21.70;3.90;;;;;;;10.76;68.94;101810.06;5094418;28;20507;-85
2020/12/01 09:27:41;;;;;;;26.58;4.22;;;;;;;10.76;68.78;101808.28;5107229;28;20363;-85
2020/12/01 09:30:17;;;;;;;25.73;3.97;;;;;;;10.81;68.27;101821.53;5109221;28;20466;-82
2020/12/01 09:32:43;;;;;;;20.08;4.53;;;;;;;10.47;67.36;101832.28;5099290;28;20459;-83
2020/12/01 09:35:09;;;;;;;25.13;3.65;;;;;;;10.54;66.82;101818.09;5109697;28;20425;-85
2020/12/01 09:37:35;;;;;;;29.30;4.43;;;;;;;10.59;67.74;101826.03;5108799;28;20077;-85
2020/12/01 09:40:02;;;;;;;23.00;3.63;;;;;;;10.60;66.82;101836.63;5108734;27;20036;-84
2020/12/01 09:42:31;;;;;;;33.80;4.90;;;;;;;10.58;67.18;101841.06;5107987;28;20077;-83
2020/12/01 09:45:30;;;;;;;22.27;2.92;;;;;;;10.44;67.39;101846.44;5108968;28;20134;-85
2020/12/01 09:47:49;;;;;;;14.95;3.30;;;;;;;10.68;67.23;101845.44;5108917;28;20115;-88
2020/12/01 09:50:22;;;;;;;13.27;2.70;;;;;;;10.76;66.28;101849.84;5108900;28;20513;-86
2020/12/01 09:58:43;;;;;;;25.50;3.60;;;;;;;10.77;65.93;101849.81;5048562;28;20423;-87
2020/12/01 10:09:41;;;;;;;23.48;3.85;;;;;;;10.90;64.98;101874.50;5053794;28;20040;-87
2020/12/01 10:17:54;;;;;;;27.83;3.90;;;;;;;11.04;64.36;101871.78;5053089;28;20475;-89
2020/12/01 10:20:52;;;;;;;27.77;3.80;;;;;;;11.02;64.47;101872.69;5060188;28;20029;-78
2020/12/01 10:31:57;;;;;;;52.67;17.13;;;;;;;10.91;64.02;101870.97;5055188;28;20179;-85
2020/12/01 10:37:00;;;;;;;22.40;4.15;;;;;;;10.96;63.35;101877.13;5069753;27;20373;-86
2020/12/01 10:39:26;;;;;;;22.00;4.53;;;;;;;10.99;63.17;101878.88;5051911;28;20041;-87
2020/12/01 10:41:52;;;;;;;29.38;4.15;;;;;;;11.09;63.03;101863.78;5048419;28;20036;-86
2020/12/01 10:44:19;;;;;;;23.20;3.72;;;;;;;11.03;62.56;101877.09;5048745;28;20033;-85
2020/12/01 10:46:48;;;;;;;21.05;3.60;;;;;;;10.99;63.02;101877.13;5049497;28;20030;-85
2020/12/01 10:49:16;;;;;;;21.75;5.00;;;;;;;11.04;62.90;101881.50;5049173;28;20021;-87
2020/12/01 10:51:46;;;;;;;25.55;3.90;;;;;;;11.21;62.78;101900.84;5048414;28;20458;-84
2020/12/01 10:54:12;;;;;;;25.63;3.92;;;;;;;11.10;62.58;101886.78;5048889;28;20112;-88
2020/12/01 10:56:38;;;;;;;24.75;4.10;;;;;;;11.19;62.87;101888.50;5048880;28;20025;-87
2020/12/01 10:59:04;;;;;;;18.63;3.53;;;;;;;11.15;63.06;101877.00;5049150;28;20503;-87
2020/12/01 11:01:34;;;;;;;20.00;3.88;;;;;;;11.20;62.81;101885.81;5048115;28;20053;-88
2020/12/01 11:04:01;;;;;;;22.73;3.38;;;;;;;11.29;62.66;101877.81;5048712;28;20103;-87
2020/12/01 11:06:27;;;;;;;26.70;6.93;;;;;;;11.03;62.66;101879.72;5048459;28;20036;-87
2020/12/01 11:08:53;;;;;;;26.85;5.20;;;;;;;11.25;62.44;101876.09;5047962;28;20094;-87
2020/12/01 11:11:20;;;;;;;24.77;3.63;;;;;;;11.12;63.17;101882.34;5057691;28;20425;-89
2020/12/01 11:13:46;;;;;;;34.67;5.38;;;;;;;11.44;62.45;101882.16;5061211;28;20071;-91
2020/12/01 11:16:13;;;;;;;27.20;3.85;;;;;;;11.48;62.64;101883.00;5055580;28;20033;-85
2020/12/01 11:18:40;;;;;;;20.02;4.15;;;;;;;11.27;62.60;101879.59;5049314;28;20037;-87
2020/12/01 11:21:06;;;;;;;28.50;4.03;;;;;;;11.36;62.38;101883.97;5047855;28;20030;-84
2020/12/01 11:23:33;;;;;;;30.27;4.10;;;;;;;11.39;62.43;101889.28;5049422;28;20021;-83
2020/12/01 11:25:59;;;;;;;23.08;3.42;;;;;;;11.32;62.49;101893.72;5051964;28;20083;-88
2020/12/01 11:28:25;;;;;;;24.88;4.45;;;;;;;11.30;62.32;101892.84;5055286;28;20040;-88
2020/12/01 11:30:52;;;;;;;22.90;3.47;;;;;;;11.51;62.13;101900.69;5050729;28;20029;-86
2020/12/01 11:33:18;;;;;;;19.48;3.67;;;;;;;11.69;61.55;101897.00;5050500;28;20026;-86
2020/12/01 11:35:44;;;;;;;22.65;3.53;;;;;;;11.69;61.76;101897.00;5050767;28;20044;-86
2020/12/01 11:38:10;;;;;;;23.73;3.90;;;;;;;11.82;61.58;101909.28;5042689;28;20083;-88
2020/12/01 11:40:36;;;;;;;25.10;3.58;;;;;;;11.91;60.99;101903.03;5042667;28;20064;-85
2020/12/01 11:43:06;;;;;;;20.58;3.60;;;;;;;11.73;60.44;101906.72;5040538;28;20033;-86
2020/12/01 11:45:32;;;;;;;25.80;5.38;;;;;;;11.84;60.71;101907.53;5059624;28;20040;-89
2020/12/01 11:47:58;;;;;;;24.55;4.97;;;;;;;12.01;60.03;101909.16;5030324;28;20052;-87
2020/12/01 11:50:24;;;;;;;24.42;3.97;;;;;;;12.09;59.96;101902.03;5035500;28;20056;-90
2020/12/01 11:52:51;;;;;;;25.02;4.18;;;;;;;12.03;59.91;101907.41;5037975;28;20122;-88
2020/12/01 11:55:17;;;;;;;25.33;4.20;;;;;;;12.06;59.85;101902.03;5034247;28;20042;-87
2020/12/01 11:57:43;;;;;;;26.55;5.10;;;;;;;12.02;59.29;101901.19;5034349;28;20033;-87
2020/12/01 12:00:10;;;;;;;16.40;2.60;;;;;;;12.07;58.69;101914.44;5039110;28;20048;-88
2020/12/01 12:02:37;;;;;;;19.52;3.83;;;;;;;11.97;58.39;101903.00;5036360;28;20433;-89
2020/12/01 12:05:07;;;;;;;21.73;3.22;;;;;;;11.98;57.83;101915.41;5033123;28;20033;-87
2020/12/01 12:07:33;;;;;;;19.63;3.55;;;;;;;11.96;57.58;101906.53;5030281;28;20034;-88
2020/12/01 12:09:59;;;;;;;15.63;2.60;;;;;;;11.92;58.11;101902.13;5029787;28;20025;-88
2020/12/01 12:12:25;;;;;;;20.08;3.58;;;;;;;11.80;57.97;101906.66;5033634;28;20552;-84
2020/12/01 12:14:51;;;;;;;19.95;3.50;;;;;;;11.79;58.06;101898.72;5040297;28;20033;-84
2020/12/01 12:17:18;;;;;;;21.65;3.20;;;;;;;12.01;57.70;101902.06;5033830;28;20033;-88
2020/12/01 12:19:44;;;;;;;15.93;3.45;;;;;;;11.88;57.32;101903.94;5044251;28;20069;-86
2020/12/01 12:22:10;;;;;;;19.40;5.43;;;;;;;12.19;56.82;101909.00;5027945;28;20017;-89
2020/12/01 12:24:37;;;;;;;30.45;7.82;;;;;;;12.12;56.45;101896.66;5033331;28;20025;-88
2020/12/01 12:27:03;;;;;;;17.95;4.07;;;;;;;12.25;56.69;101908.03;5038663;28;20103;-83
2020/12/01 12:29:29;;;;;;;23.55;3.78;;;;;;;12.24;56.54;101899.22;5040790;28;20105;-85
2020/12/01 12:31:55;;;;;;;20.92;3.70;;;;;;;12.14;56.69;101921.47;5045975;28;20025;-86
2020/12/01 12:34:21;;;;;;;21.00;3.40;;;;;;;12.00;56.59;101899.44;5042184;28;20029;-85
2020/12/01 12:36:48;;;;;;;27.35;3.22;;;;;;;11.74;57.26;101919.09;5036407;28;20038;-85
2020/12/01 12:39:14;;;;;;;22.17;4.38;;;;;;;11.77;57.52;101908.44;5034668;28;20116;-82
2020/12/01 12:41:40;;;;;;;22.55;4.90;;;;;;;12.03;57.50;101910.91;5033462;28;20022;-84
2020/12/01 12:44:09;;;;;;;25.30;5.47;;;;;;;12.11;57.88;101900.22;5032172;28;20030;-92
2020/12/01 12:46:37;;;;;;;24.40;3.00;;;;;;;12.13;57.72;101904.63;5033345;28;20029;-84
2020/12/01 12:49:04;;;;;;;21.40;3.72;;;;;;;12.21;57.56;101901.00;5028120;28;20033;-86
2020/12/01 12:51:30;;;;;;;18.08;3.75;;;;;;;12.21;57.46;101895.69;5033503;28;20030;-92
2020/12/01 12:53:56;;;;;;;20.33;3.63;;;;;;;12.22;57.23;101911.63;5040640;28;20032;-90
2020/12/01 12:56:24;;;;;;;24.77;4.95;;;;;;;11.93;56.73;101895.94;5032439;28;20033;-88
2020/12/01 12:58:52;;;;;;;17.02;3.28;;;;;;;12.13;56.93;101901.09;5031508;28;20387;-90
2020/12/01 13:01:18;;;;;;;21.55;3.53;;;;;;;12.18;56.96;101888.63;5037517;28;20029;-90
2020/12/01 13:03:45;;;;;;;21.40;3.30;;;;;;;12.13;56.95;101904.63;5043847;28;20060;-90
2020/12/01 13:06:11;;;;;;;22.95;3.08;;;;;;;12.16;56.77;101906.38;5032905;28;20029;-89
2020/12/01 13:08:39;;;;;;;18.40;3.53;;;;;;;12.25;56.26;101902.72;5030223;28;20025;-88
2020/12/01 13:11:07;;;;;;;19.33;4.05;;;;;;;12.19;56.70;101909.00;5036995;28;20368;-89
2020/12/01 13:13:34;;;;;;;15.82;2.83;;;;;;;12.29;56.38;101905.34;5043850;28;20087;-89
2020/12/01 13:16:00;;;;;;;22.30;3.28;;;;;;;12.36;55.89;101902.63;5040379;28;20557;-90
2020/12/01 13:18:26;;;;;;;15.55;2.58;;;;;;;12.17;56.03;101904.59;5053211;28;20537;-89
2020/12/01 13:20:52;;;;;;;20.77;3.15;;;;;;;12.31;55.77;101902.66;5053615;28;20047;-89
2020/12/01 13:23:18;;;;;;;20.08;3.28;;;;;;;12.48;55.55;101898.97;5055367;28;20047;-90